createdAt,value
2019-03-09T00:01:10.687Z,46.98
2019-03-09T00:03:38.823Z,47.02
2019-03-09T00:06:06.936Z,47.05
2019-03-09T00:08:36.410Z,47.08
2019-03-09T00:11:06.476Z,47.11
2019-03-09T00:13:34.550Z,47.12
2019-03-09T00:16:02.578Z,47.13
2019-03-09T00:18:30.652Z,47.13
2019-03-09T00:20:59.305Z,47.15
2019-03-09T00:23:46.993Z,47.17
2019-03-09T00:26:23.394Z,47.25
2019-03-09T00:29:04.947Z,47.29
2019-03-09T00:31:49.871Z,47.31
2019-03-09T00:34:18.196Z,47.32
2019-03-09T00:36:46.270Z,47.34
2019-03-09T00:39:14.529Z,47.38
2019-03-09T00:41:42.584Z,47.39
2019-03-09T00:44:10.650Z,47.39
2019-03-09T00:46:39.018Z,47.42
2019-03-09T00:49:08.190Z,47.48
2019-03-09T00:51:36.545Z,47.53
2019-03-09T00:54:04.608Z,47.59
2019-03-09T00:56:32.662Z,47.66
2019-03-09T00:59:01.026Z,47.67
2019-03-09T01:01:29.061Z,47.69
2019-03-09T01:03:57.130Z,47.75
2019-03-09T01:06:25.202Z,47.80
2019-03-09T01:08:53.311Z,47.81
2019-03-09T01:11:22.242Z,47.83
2019-03-09T01:13:50.314Z,47.82
2019-03-09T01:16:18.342Z,47.85
2019-03-09T01:18:46.409Z,47.91
2019-03-09T01:21:14.790Z,47.95
2019-03-09T01:23:43.488Z,47.99
2019-03-09T01:26:11.512Z,48.03
2019-03-09T01:28:39.612Z,48.04
2019-03-09T01:31:07.703Z,48.07
2019-03-09T01:33:35.758Z,48.08
2019-03-09T01:36:03.774Z,48.08
2019-03-09T01:38:32.122Z,48.10
2019-03-09T01:41:00.149Z,48.11
2019-03-09T01:43:28.241Z,48.14
2019-03-09T01:45:56.274Z,48.16
2019-03-09T01:48:24.877Z,48.17
2019-03-09T01:50:53.031Z,48.24
2019-03-09T01:53:22.284Z,48.25
2019-03-09T01:55:52.147Z,48.25
2019-03-09T01:58:20.208Z,48.27
2019-03-09T02:00:48.469Z,48.27
2019-03-09T02:03:16.539Z,48.29
2019-03-09T02:05:44.572Z,48.33
2019-03-09T02:08:13.880Z,48.32
2019-03-09T02:10:42.193Z,48.33
2019-03-09T02:13:10.243Z,48.31
2019-03-09T02:15:38.304Z,48.37
2019-03-09T02:18:06.655Z,48.38
2019-03-09T02:20:34.698Z,48.42
2019-03-09T02:23:03.021Z,48.47
2019-03-09T02:25:31.076Z,48.44
2019-03-09T02:27:59.148Z,48.44
2019-03-09T02:30:27.297Z,48.45
2019-03-09T02:32:55.343Z,48.44
2019-03-09T02:35:27.644Z,48.44
2019-03-09T02:37:58.803Z,48.41
2019-03-09T02:40:27.947Z,48.42
2019-03-09T02:42:55.949Z,48.41
2019-03-09T02:45:24.615Z,48.39
2019-03-09T02:47:52.654Z,48.39
2019-03-09T02:50:20.943Z,48.38
2019-03-09T02:52:49.037Z,48.38
2019-03-09T02:55:17.097Z,48.39
2019-03-09T02:57:45.214Z,48.37
2019-03-09T03:00:15.860Z,48.39
2019-03-09T03:02:50.546Z,48.41
2019-03-09T03:05:18.628Z,48.44
2019-03-09T03:07:46.699Z,48.42
2019-03-09T03:10:14.736Z,48.46
2019-03-09T03:12:42.886Z,48.51
2019-03-09T03:15:13.230Z,48.52
2019-03-09T03:17:41.279Z,48.52
2019-03-09T03:20:09.883Z,48.54
2019-03-09T03:22:38.043Z,48.59
2019-03-09T03:25:06.456Z,48.63
2019-03-09T03:27:34.529Z,48.65
2019-03-09T03:30:02.634Z,48.70
2019-03-09T03:32:34.355Z,48.77
2019-03-09T03:35:02.448Z,48.85
2019-03-09T03:37:31.478Z,48.81
2019-03-09T03:39:59.582Z,48.84
2019-03-09T03:42:27.630Z,48.86
2019-03-09T03:44:55.705Z,48.86
2019-03-09T03:47:23.754Z,48.90
2019-03-09T03:49:52.811Z,48.92
2019-03-09T03:52:20.843Z,48.94
2019-03-09T03:54:48.916Z,48.96
2019-03-09T03:57:17.062Z,48.99
2019-03-09T03:59:45.095Z,49.02
2019-03-09T04:02:13.129Z,49.03
2019-03-09T04:04:41.197Z,49.04
2019-03-09T04:07:09.294Z,49.07
2019-03-09T04:09:38.081Z,49.07
2019-03-09T04:12:06.126Z,49.09
2019-03-09T04:14:34.203Z,49.12
2019-03-09T04:17:02.622Z,49.12
2019-03-09T04:19:30.696Z,49.12
2019-03-09T04:21:58.786Z,49.15
2019-03-09T04:24:26.859Z,49.13
2019-03-09T04:26:54.905Z,49.11
2019-03-09T04:29:23.271Z,49.10
2019-03-09T04:31:51.338Z,49.07
2019-03-09T04:34:19.770Z,49.08
2019-03-09T04:36:56.767Z,49.05
2019-03-09T04:39:24.841Z,49.06
2019-03-09T04:41:53.491Z,49.06
2019-03-09T04:44:21.587Z,49.06
2019-03-09T04:46:49.665Z,49.05
2019-03-09T04:49:17.724Z,49.05
2019-03-09T04:51:45.861Z,49.06
2019-03-09T04:54:13.867Z,49.10
2019-03-09T04:56:41.960Z,49.08
2019-03-09T04:59:09.998Z,49.13
2019-03-09T05:01:38.166Z,49.16
2019-03-09T05:04:41.923Z,49.16
2019-03-09T05:07:18.231Z,49.17
2019-03-09T05:10:11.719Z,49.11
2019-03-09T05:12:40.103Z,49.18
2019-03-09T05:15:09.488Z,49.24
2019-03-09T05:17:37.540Z,49.23
2019-03-09T05:20:05.644Z,49.24
2019-03-09T05:22:33.717Z,49.29
2019-03-09T05:25:01.787Z,49.32
2019-03-09T05:27:30.815Z,49.37
2019-03-09T05:29:58.909Z,49.38
2019-03-09T05:32:26.969Z,49.42
2019-03-09T05:34:55.022Z,49.42
2019-03-09T05:37:23.074Z,49.47
2019-03-09T05:39:51.141Z,49.53
2019-03-09T05:42:19.231Z,49.54
2019-03-09T05:44:47.269Z,49.54
2019-03-09T05:47:15.661Z,49.57
2019-03-09T05:49:43.967Z,49.58
2019-03-09T05:52:35.184Z,49.63
2019-03-09T05:55:18.436Z,49.64
2019-03-09T05:57:46.743Z,49.60
2019-03-09T06:00:16.584Z,49.57
2019-03-09T06:02:46.460Z,49.65
2019-03-09T06:05:38.360Z,49.69
2019-03-09T06:08:07.445Z,49.67
2019-03-09T06:10:35.783Z,49.69
2019-03-09T06:13:04.201Z,49.68
2019-03-09T06:15:32.268Z,49.68
2019-03-09T06:18:00.302Z,49.72
2019-03-09T06:20:28.496Z,49.77
2019-03-09T06:22:56.835Z,49.76
2019-03-09T06:25:25.218Z,49.77
2019-03-09T06:27:53.257Z,49.79
2019-03-09T06:30:21.338Z,49.79
2019-03-09T06:33:36.703Z,49.77
2019-03-09T06:36:57.027Z,49.84
2019-03-09T06:39:47.431Z,49.76
2019-03-09T06:42:43.730Z,49.75
2019-03-09T06:45:14.243Z,49.79
2019-03-09T06:47:42.307Z,49.82
2019-03-09T06:50:14.423Z,49.90
2019-03-09T06:52:42.502Z,49.95
2019-03-09T06:55:11.364Z,50.00
2019-03-09T06:57:39.446Z,50.00
2019-03-09T07:00:34.736Z,50.02
2019-03-09T07:03:03.346Z,50.08
2019-03-09T07:05:32.377Z,50.08
2019-03-09T07:08:01.493Z,50.10
2019-03-09T07:10:29.602Z,50.17
2019-03-09T07:12:58.910Z,50.19
2019-03-09T07:15:32.939Z,50.21
2019-03-09T07:18:23.038Z,50.22
2019-03-09T07:20:51.099Z,50.25
2019-03-09T07:23:19.584Z,50.24
2019-03-09T07:25:48.004Z,50.29
2019-03-09T07:28:16.385Z,50.29
2019-03-09T07:30:44.450Z,50.30
2019-03-09T07:33:12.777Z,50.30
2019-03-09T07:35:40.825Z,50.28
2019-03-09T07:38:08.960Z,50.33
2019-03-09T07:40:58.382Z,50.38
2019-03-09T07:43:37.828Z,50.38
2019-03-09T07:46:08.940Z,50.39
2019-03-09T07:48:40.827Z,50.41
2019-03-09T07:51:08.741Z,50.45
2019-03-09T07:53:36.810Z,50.48
2019-03-09T07:56:04.878Z,50.50
2019-03-09T07:58:32.929Z,50.50
2019-03-09T08:01:01.401Z,50.51
2019-03-09T08:03:29.467Z,50.52
2019-03-09T08:05:57.533Z,50.54
2019-03-09T08:08:25.605Z,50.57
2019-03-09T08:10:53.762Z,50.57
2019-03-09T08:13:21.856Z,50.60
2019-03-09T08:15:50.201Z,50.60
2019-03-09T08:18:18.766Z,50.60
2019-03-09T08:20:46.917Z,50.61
2019-03-09T08:23:15.703Z,50.60
2019-03-09T08:25:55.241Z,50.62
2019-03-09T08:28:26.026Z,50.61
2019-03-09T08:30:54.378Z,50.56
2019-03-09T08:33:22.538Z,50.59
2019-03-09T08:35:50.669Z,50.61
2019-03-09T08:38:19.116Z,50.62
2019-03-09T08:40:47.206Z,50.64
2019-03-09T08:43:15.671Z,50.69
2019-03-09T08:45:43.711Z,50.71
2019-03-09T08:48:13.181Z,50.70
2019-03-09T08:50:41.682Z,50.74
2019-03-09T08:53:10.069Z,50.71
2019-03-09T08:55:38.458Z,50.74
2019-03-09T08:58:06.516Z,50.76
2019-03-09T09:00:34.797Z,50.71
2019-03-09T09:03:02.892Z,50.77
2019-03-09T09:05:31.416Z,50.81
2019-03-09T09:07:59.611Z,50.84
2019-03-09T09:10:27.727Z,50.80
2019-03-09T09:12:56.078Z,50.84
2019-03-09T09:15:24.145Z,50.83
2019-03-09T09:17:52.585Z,50.82
2019-03-09T09:20:21.432Z,50.90
2019-03-09T09:22:49.553Z,50.91
2019-03-09T09:25:17.675Z,50.91
2019-03-09T09:27:45.777Z,50.91
2019-03-09T09:30:18.565Z,50.90
2019-03-09T09:32:46.614Z,50.87
2019-03-09T09:35:15.207Z,50.88
2019-03-09T09:37:43.366Z,50.90
2019-03-09T09:40:15.370Z,50.94
2019-03-09T09:42:43.443Z,50.95
2019-03-09T09:45:11.983Z,50.91
2019-03-09T09:47:42.507Z,50.87
2019-03-09T09:50:12.062Z,50.89
2019-03-09T09:52:40.115Z,50.85
2019-03-09T09:55:11.999Z,50.88
2019-03-09T09:57:40.039Z,50.89
2019-03-09T10:00:14.559Z,50.89
2019-03-09T10:02:42.738Z,50.91
2019-03-09T10:05:10.962Z,50.87
2019-03-09T10:07:39.146Z,50.86
2019-03-09T10:10:09.507Z,50.91
2019-03-09T10:12:37.637Z,50.94
2019-03-09T10:15:10.354Z,50.93
2019-03-09T10:17:38.399Z,50.93
2019-03-09T10:20:07.220Z,50.87
2019-03-09T10:22:35.246Z,50.85
2019-03-09T10:25:03.865Z,50.87
2019-03-09T10:27:32.004Z,50.86
2019-03-09T10:30:00.446Z,50.86
2019-03-09T10:32:28.959Z,50.84
2019-03-09T10:34:57.185Z,50.86
2019-03-09T10:37:25.558Z,50.87
2019-03-09T10:39:53.675Z,50.83
2019-03-09T10:42:21.927Z,50.85
2019-03-09T10:44:50.001Z,50.88
2019-03-09T10:47:19.178Z,50.93
2019-03-09T10:49:47.267Z,50.94
2019-03-09T10:52:15.403Z,50.96
2019-03-09T10:54:44.819Z,50.98
2019-03-09T10:57:12.991Z,51.01
2019-03-09T10:59:41.067Z,51.07
2019-03-09T11:02:09.479Z,51.10
2019-03-09T11:04:37.842Z,51.13
2019-03-09T11:07:05.868Z,51.13
2019-03-09T11:09:33.964Z,51.15
2019-03-09T11:12:02.038Z,51.16
2019-03-09T11:14:30.175Z,51.16
2019-03-09T11:16:59.148Z,51.13
2019-03-09T11:19:27.279Z,51.12
2019-03-09T11:21:55.412Z,51.08
2019-03-09T11:24:24.520Z,51.08
2019-03-09T11:26:52.713Z,51.03
2019-03-09T11:29:23.446Z,51.03
2019-03-09T11:31:51.563Z,50.97
2019-03-09T11:34:21.326Z,50.97
2019-03-09T11:36:49.661Z,50.99
2019-03-09T11:39:18.439Z,51.01
2019-03-09T11:41:46.531Z,51.06
2019-03-09T11:44:17.424Z,51.04
2019-03-09T11:46:45.560Z,51.01
2019-03-09T11:49:13.656Z,51.00
2019-03-09T11:51:41.701Z,51.01
2019-03-09T11:54:09.750Z,50.97
2019-03-09T11:56:37.852Z,50.98
2019-03-09T11:59:06.616Z,50.99
2019-03-09T12:01:35.608Z,50.96
2019-03-09T12:04:03.933Z,50.93
2019-03-09T12:06:32.017Z,50.97
2019-03-09T12:09:00.071Z,50.97
2019-03-09T12:11:28.259Z,50.94
2019-03-09T12:13:56.357Z,50.94
2019-03-09T12:16:24.767Z,50.95
2019-03-09T12:18:52.863Z,50.93
2019-03-09T12:21:21.061Z,50.92
2019-03-09T12:23:50.457Z,50.93
2019-03-09T12:26:18.846Z,50.93
2019-03-09T12:28:46.931Z,50.93
2019-03-09T12:31:15.002Z,50.93
2019-03-09T12:33:43.100Z,50.96
2019-03-09T12:36:11.139Z,50.92
2019-03-09T12:38:39.188Z,50.96
2019-03-09T12:41:07.270Z,51.00
2019-03-09T12:43:35.704Z,51.00
2019-03-09T12:46:04.040Z,51.01
2019-03-09T12:48:32.197Z,50.99
2019-03-09T12:51:00.306Z,50.99
2019-03-09T12:53:28.763Z,51.01
2019-03-09T12:55:56.849Z,51.02
2019-03-09T12:58:24.906Z,51.06
2019-03-09T13:00:53.171Z,51.07
2019-03-09T13:03:21.340Z,51.07
2019-03-09T13:05:49.410Z,51.07
2019-03-09T13:08:17.524Z,51.01
2019-03-09T13:10:45.579Z,50.98
2019-03-09T13:13:13.641Z,50.95
2019-03-09T13:15:41.710Z,50.98
2019-03-09T13:18:10.000Z,51.02
2019-03-09T13:20:38.074Z,51.04
2019-03-09T13:23:06.503Z,51.05
2019-03-09T13:25:35.168Z,51.02
2019-03-09T13:28:03.354Z,51.03
2019-03-09T13:30:32.532Z,51.08
2019-03-09T13:33:01.139Z,51.15
2019-03-09T13:35:29.187Z,51.22
2019-03-09T13:37:57.668Z,51.28
2019-03-09T13:40:25.740Z,51.39
2019-03-09T13:42:53.980Z,51.50
2019-03-09T13:45:22.249Z,51.57
2019-03-09T13:47:50.330Z,51.66
2019-03-09T13:50:18.396Z,51.77
2019-03-09T13:52:48.301Z,51.83
2019-03-09T13:55:16.477Z,51.99
2019-03-09T13:57:44.548Z,52.11
2019-03-09T14:00:14.663Z,52.15
2019-03-09T14:02:42.788Z,52.21
2019-03-09T14:05:11.184Z,52.31
2019-03-09T14:07:40.525Z,52.44
2019-03-09T14:10:10.353Z,52.58
2019-03-09T14:12:51.974Z,52.64
2019-03-09T14:15:35.171Z,52.71
2019-03-09T14:18:05.288Z,52.77
2019-03-09T14:20:33.350Z,52.82
2019-03-09T14:23:02.299Z,52.92
2019-03-09T14:25:30.399Z,53.00
2019-03-09T14:27:58.869Z,53.13
2019-03-09T14:30:26.923Z,53.20
2019-03-09T14:32:55.588Z,53.32
2019-03-09T14:35:24.747Z,53.42
2019-03-09T14:37:54.648Z,53.52
2019-03-09T14:40:22.736Z,53.53
2019-03-09T14:42:50.827Z,53.63
2019-03-09T14:45:18.977Z,53.63
2019-03-09T14:47:47.063Z,53.69
2019-03-09T14:50:16.108Z,53.69
2019-03-09T14:52:44.193Z,53.72
2019-03-09T14:55:12.669Z,53.77
2019-03-09T14:57:40.739Z,53.81
2019-03-09T15:00:15.106Z,53.86
2019-03-09T15:02:43.457Z,53.92
2019-03-09T15:05:13.218Z,53.94
2019-03-09T15:07:41.356Z,53.97
2019-03-09T15:10:09.734Z,54.05
2019-03-09T15:12:37.908Z,54.10
2019-03-09T15:15:07.937Z,54.16
2019-03-09T15:17:35.997Z,54.13
2019-03-09T15:20:04.755Z,54.11
2019-03-09T15:22:32.832Z,54.10
2019-03-09T15:25:01.174Z,54.04
2019-03-09T15:27:29.390Z,53.99
2019-03-09T15:29:57.455Z,53.94
2019-03-09T15:32:25.515Z,53.88
2019-03-09T15:34:53.696Z,53.84
2019-03-09T15:37:21.852Z,53.82
2019-03-09T15:39:49.915Z,53.80
2019-03-09T15:42:19.154Z,53.75
2019-03-09T15:44:47.558Z,53.75
2019-03-09T15:47:16.284Z,53.69
2019-03-09T15:49:44.329Z,53.65
2019-03-09T15:52:12.397Z,53.61
2019-03-09T15:54:40.761Z,53.57
2019-03-09T15:57:08.836Z,53.57
2019-03-09T15:59:37.873Z,53.48
2019-03-09T16:02:10.394Z,53.43
2019-03-09T16:04:39.720Z,53.41
2019-03-09T16:07:08.032Z,53.36
2019-03-09T16:09:36.421Z,53.34
2019-03-09T16:12:04.562Z,53.32
2019-03-09T16:14:34.448Z,53.27
2019-03-09T16:17:06.733Z,53.28
2019-03-09T16:19:35.371Z,53.29
2019-03-09T16:22:04.351Z,53.28
2019-03-09T16:24:32.930Z,53.26
2019-03-09T16:27:01.070Z,53.29
2019-03-09T16:29:29.136Z,53.28
2019-03-09T16:31:57.316Z,53.24
2019-03-09T16:34:25.466Z,53.22
2019-03-09T16:36:54.768Z,53.22
2019-03-09T16:39:23.236Z,53.20
2019-03-09T16:41:54.082Z,53.16
2019-03-09T16:44:23.122Z,53.10
2019-03-09T16:46:51.284Z,53.06
2019-03-09T16:49:19.670Z,53.00
2019-03-09T16:51:47.833Z,52.99
2019-03-09T16:54:17.441Z,52.93
2019-03-09T16:56:45.573Z,52.90
2019-03-09T16:59:13.675Z,52.84
2019-03-09T17:01:42.751Z,52.82
2019-03-09T17:04:11.209Z,52.81
2019-03-09T17:06:39.318Z,52.80
2019-03-09T17:09:07.884Z,52.79
2019-03-09T17:11:37.771Z,52.76
2019-03-09T17:14:05.882Z,52.73
2019-03-09T17:16:34.078Z,52.69
2019-03-09T17:19:02.222Z,52.69
2019-03-09T17:21:30.258Z,52.64
2019-03-09T17:23:58.726Z,52.60
2019-03-09T17:26:27.255Z,52.58
2019-03-09T17:28:55.312Z,52.52
2019-03-09T17:31:23.434Z,52.50
2019-03-09T17:33:51.569Z,52.50
2019-03-09T17:36:20.148Z,52.52
2019-03-09T17:38:48.527Z,52.50
2019-03-09T17:41:16.966Z,52.47
2019-03-09T17:43:45.091Z,52.41
2019-03-09T17:46:13.341Z,52.39
2019-03-09T17:48:41.948Z,52.38
2019-03-09T17:51:10.047Z,52.34
2019-03-09T17:53:38.713Z,52.30
2019-03-09T17:56:06.815Z,52.29
2019-03-09T17:58:35.303Z,52.25
2019-03-09T18:01:03.394Z,52.23
2019-03-09T18:03:31.488Z,52.18
2019-03-09T18:05:59.918Z,52.23
2019-03-09T18:08:28.174Z,52.21
2019-03-09T18:11:00.811Z,52.22
2019-03-09T18:13:28.866Z,52.18
2019-03-09T18:15:57.245Z,52.16
2019-03-09T18:18:25.484Z,52.12
2019-03-09T18:20:53.564Z,52.05
2019-03-09T18:23:21.633Z,52.00
2019-03-09T18:25:49.901Z,51.94
2019-03-09T18:28:18.090Z,51.96
2019-03-09T18:30:46.384Z,51.94
2019-03-09T18:33:14.763Z,51.93
2019-03-09T18:35:43.094Z,51.97
2019-03-09T18:38:11.242Z,51.96
2019-03-09T18:40:39.773Z,51.93
2019-03-09T18:43:08.021Z,51.91
2019-03-09T18:45:36.232Z,51.93
2019-03-09T18:48:04.307Z,51.95
2019-03-09T18:50:32.351Z,52.08
2019-03-09T18:53:00.675Z,52.19
2019-03-09T18:55:29.124Z,52.27
2019-03-09T18:57:57.130Z,52.26
2019-03-09T19:00:25.212Z,52.24
2019-03-09T19:02:53.366Z,52.36
2019-03-09T19:05:21.528Z,52.45
2019-03-09T19:07:49.660Z,52.43
2019-03-09T19:10:18.365Z,52.50
2019-03-09T19:12:47.262Z,52.51
2019-03-09T19:15:15.672Z,52.53
2019-03-09T19:17:43.785Z,52.61
2019-03-09T19:20:12.835Z,52.66
2019-03-09T19:22:47.949Z,52.65
2019-03-09T19:25:16.335Z,52.64
2019-03-09T19:27:44.800Z,52.68
2019-03-09T19:30:14.346Z,52.76
2019-03-09T19:32:42.544Z,52.90
2019-03-09T19:35:10.651Z,52.98
2019-03-09T19:37:38.692Z,52.98
2019-03-09T19:40:09.567Z,53.01
2019-03-09T19:42:37.637Z,53.07
2019-03-09T19:45:07.685Z,53.09
2019-03-09T19:47:35.728Z,53.11
2019-03-09T19:50:04.697Z,53.16
2019-03-09T19:52:33.002Z,53.16
2019-03-09T19:55:01.226Z,53.12
2019-03-09T19:57:29.581Z,53.12
2019-03-09T19:59:58.221Z,53.14
2019-03-09T20:02:26.271Z,53.16
2019-03-09T20:04:54.811Z,53.15
2019-03-09T20:07:22.893Z,53.17
2019-03-09T20:09:51.142Z,53.20
2019-03-09T20:12:20.837Z,53.22
2019-03-09T20:14:49.333Z,53.21
2019-03-09T20:17:18.070Z,53.25
2019-03-09T20:19:46.158Z,53.27
2019-03-09T20:22:14.567Z,53.32
2019-03-09T20:24:42.641Z,53.33
2019-03-09T20:27:10.817Z,53.37
2019-03-09T20:29:38.992Z,53.39
2019-03-09T20:32:07.053Z,53.43
2019-03-09T20:34:35.491Z,53.45
2019-03-09T20:37:03.715Z,53.51
2019-03-09T20:39:33.066Z,53.56
2019-03-09T20:42:01.506Z,53.60
2019-03-09T20:44:29.543Z,53.62
2019-03-09T20:46:57.938Z,53.63
2019-03-09T20:49:26.141Z,53.66
2019-03-09T20:51:54.254Z,53.72
2019-03-09T20:54:22.320Z,53.76
2019-03-09T20:56:50.612Z,53.79
2019-03-09T20:59:18.801Z,53.79
2019-03-09T21:01:46.853Z,53.79
2019-03-09T21:04:17.388Z,53.84
2019-03-09T21:06:45.597Z,53.90
2019-03-09T21:09:13.667Z,53.89
2019-03-09T21:11:54.164Z,53.89
2019-03-09T21:14:22.230Z,53.89
2019-03-09T21:16:50.360Z,53.87
2019-03-09T21:19:18.448Z,53.91
2019-03-09T21:21:46.535Z,53.94
2019-03-09T21:24:15.019Z,53.96
2019-03-09T21:26:43.445Z,54.02
2019-03-09T21:29:11.546Z,54.04
2019-03-09T21:31:39.618Z,54.05
2019-03-09T21:34:07.755Z,54.07
2019-03-09T21:36:36.325Z,54.07
2019-03-09T21:39:05.390Z,54.08
2019-03-09T21:41:44.707Z,54.14
2019-03-09T21:44:12.779Z,54.17
2019-03-09T21:46:41.253Z,54.17
2019-03-09T21:49:09.720Z,54.25
2019-03-09T21:51:37.780Z,54.26
2019-03-09T21:54:05.809Z,54.24
2019-03-09T21:56:34.943Z,54.29
2019-03-09T21:59:03.099Z,54.32
2019-03-09T22:01:31.211Z,54.38
2019-03-09T22:03:59.273Z,54.38
2019-03-09T22:06:27.552Z,54.36
2019-03-09T22:08:55.652Z,54.40
2019-03-09T22:11:23.797Z,54.41
2019-03-09T22:13:51.834Z,54.40
2019-03-09T22:16:19.923Z,54.41
2019-03-09T22:18:48.136Z,54.42
2019-03-09T22:21:16.568Z,54.44
2019-03-09T22:23:44.863Z,54.45
2019-03-09T22:26:13.288Z,54.46
2019-03-09T22:28:41.345Z,54.51
2019-03-09T22:31:09.435Z,54.53
2019-03-09T22:33:37.488Z,54.50
2019-03-09T22:36:05.530Z,54.52
2019-03-09T22:38:39.011Z,54.55
2019-03-09T22:41:07.092Z,54.61
2019-03-09T22:43:35.128Z,54.65
2019-03-09T22:46:03.157Z,54.67
2019-03-09T22:48:31.536Z,54.74
2019-03-09T22:50:59.665Z,54.77
2019-03-09T22:53:27.723Z,54.83
2019-03-09T22:55:55.779Z,54.83
2019-03-09T22:58:23.799Z,54.88
2019-03-09T23:00:51.957Z,54.96
2019-03-09T23:03:20.514Z,54.99
2019-03-09T23:05:48.589Z,55.06
2019-03-09T23:08:18.175Z,55.12
2019-03-09T23:10:46.254Z,55.13
2019-03-09T23:13:14.474Z,55.07
2019-03-09T23:15:42.536Z,55.06
2019-03-09T23:18:10.886Z,55.07
2019-03-09T23:20:39.029Z,55.14
2019-03-09T23:23:07.088Z,55.16
2019-03-09T23:25:35.171Z,55.18
2019-03-09T23:28:03.274Z,55.21
2019-03-09T23:30:31.534Z,55.19
2019-03-09T23:32:59.726Z,55.27
2019-03-09T23:35:27.796Z,55.32
2019-03-09T23:37:55.912Z,55.37
2019-03-09T23:40:24.093Z,55.38
2019-03-09T23:42:53.137Z,55.37
2019-03-09T23:45:21.353Z,55.38
2019-03-09T23:47:50.000Z,55.43
2019-03-09T23:50:19.440Z,55.51
2019-03-09T23:52:47.708Z,55.61
2019-03-09T23:55:21.928Z,55.68
2019-03-09T23:57:47.447Z,55.68
